Time;durP1;ratioP1;P1;durP2;ratioP2;P2;SDS_P1;SDS_P2;PMS_P1;PMS_P2;Temp;Humidity;BMP_temperature;BMP_pressure;BME280_temperature;BME280_humidity;BME280_pressure;Samples;Min_cycle;Max_cycle;Signal;HPM_P1;HPM_P2
2024/03/26 06:33:29;;;;;;;7.18;1.88;;;;;;;3.95;71.76;94523.97;2091830;27;20565;-67
2024/03/26 07:24:41;;;;;;;12.52;1.92;;;;;;;5.38;67.90;94482.47;2084529;28;20565;-68
2024/03/26 07:27:14;;;;;;;11.57;2.05;;;;;;;5.45;67.81;94479.53;2095693;27;20561;-67
2024/03/26 07:29:46;;;;;;;6.07;1.85;;;;;;;5.55;67.22;94473.69;2090272;27;20554;-67
2024/03/26 07:32:14;;;;;;;8.23;2.15;;;;;;;5.66;67.54;94472.22;2105479;27;20573;-67
2024/03/26 07:34:36;;;;;;;8.20;2.40;;;;;;;5.68;67.75;94483.34;2099853;27;20554;-67
2024/03/26 07:37:12;;;;;;;14.13;2.00;;;;;;;5.81;67.43;94486.84;2081701;28;20560;-67
2024/03/26 07:38:12;;;;;;;4.57;2.13;;;;;;;5.92;66.66;94493.97;2079725;28;20196;-67
2024/03/26 07:39:20;;;;;;;8.20;1.87;;;;;;;6.05;66.31;94491.50;2074027;28;20207;-68
2024/03/26 07:40:20;;;;;;;7.20;2.00;;;;;;;6.12;66.38;94490.22;2078260;28;20789;-68
2024/03/26 07:41:21;;;;;;;3.73;1.77;;;;;;;6.44;65.18;94483.97;2077177;28;20213;-68
2024/03/26 07:43:22;;;;;;;5.63;2.00;;;;;;;6.09;64.46;94467.06;2085307;28;20552;-68
2024/03/26 07:44:23;;;;;;;3.37;1.60;;;;;;;6.36;64.21;94485.25;2077689;28;20221;-68
2024/03/26 07:46:27;;;;;;;6.72;2.20;;;;;;;6.12;65.00;94481.59;2082955;28;20589;-66
2024/03/26 07:48:51;;;;;;;4.65;1.67;;;;;;;6.19;65.81;94472.50;2084044;28;20571;-67
2024/03/26 07:51:18;;;;;;;5.43;1.50;;;;;;;6.22;65.20;94459.34;2106347;27;20560;-67
2024/03/26 07:52:18;;;;;;;8.03;1.80;;;;;;;6.50;64.85;94465.41;2099161;28;20230;-67
2024/03/26 07:54:32;;;;;;;6.03;1.30;;;;;;;6.52;63.80;94463.53;2082994;28;21070;-68
2024/03/26 07:56:55;;;;;;;5.70;1.52;;;;;;;6.87;62.41;94483.81;2082392;28;21058;-68
2024/03/26 07:59:10;;;;;;;5.03;2.15;;;;;;;6.81;63.68;94490.22;2091801;27;20546;-68
2024/03/26 08:01:30;;;;;;;12.60;2.05;;;;;;;6.58;64.20;94496.03;2103032;27;20631;-66
2024/03/26 08:26:16;;;;;;;4.65;1.70;;;;;;;7.08;63.03;94480.75;2103255;27;20545;-66
2024/03/26 08:28:19;;;;;;;4.32;1.75;;;;;;;7.29;62.95;94476.75;2083482;27;20550;-66
2024/03/26 08:29:20;;;;;;;3.17;1.57;;;;;;;7.43;62.12;94483.63;2078171;28;20666;-66
2024/03/26 08:31:25;;;;;;;5.35;1.80;;;;;;;7.63;62.00;94476.25;2081021;27;21037;-66
2024/03/26 08:32:26;;;;;;;8.48;1.45;;;;;;;7.67;61.95;94480.31;2075715;28;20214;-66
2024/03/26 08:33:26;;;;;;;6.20;2.10;;;;;;;7.56;61.81;94481.03;2069907;28;20313;-66
2024/03/26 08:34:27;;;;;;;4.10;1.83;;;;;;;7.53;62.31;94476.06;2074289;28;20198;-66
2024/03/26 08:35:27;;;;;;;3.70;1.90;;;;;;;7.43;62.37;94467.22;2065567;28;20264;-68
2024/03/26 08:36:28;;;;;;;7.87;1.93;;;;;;;7.64;62.35;94470.97;2068138;28;20198;-68
2024/03/26 08:37:28;;;;;;;4.63;1.80;;;;;;;7.65;62.09;94470.00;2064371;28;20235;-68
2024/03/26 08:38:29;;;;;;;11.03;2.00;;;;;;;7.96;62.10;94460.13;2074547;28;20225;-68
2024/03/26 08:39:29;;;;;;;3.13;1.90;;;;;;;8.03;61.16;94465.72;2074713;28;20292;-68
2024/03/26 08:40:30;;;;;;;7.40;3.00;;;;;;;8.07;61.17;94461.97;2073034;28;20247;-68
2024/03/26 08:41:30;;;;;;;22.23;1.70;;;;;;;8.14;61.09;94465.00;2064299;28;20205;-68
2024/03/26 08:42:31;;;;;;;6.57;1.70;;;;;;;8.25;61.09;94464.22;2064692;28;20230;-68
2024/03/26 08:43:31;;;;;;;5.30;1.67;;;;;;;8.31;61.18;94472.44;2067922;28;20253;-68
2024/03/26 08:44:32;;;;;;;5.63;1.53;;;;;;;8.42;60.84;94465.66;2064828;28;20253;-68
2024/03/26 08:45:39;;;;;;;3.53;1.73;;;;;;;8.51;60.66;94467.63;2063738;28;20199;-68
2024/03/26 08:46:39;;;;;;;6.32;1.75;;;;;;;8.38;60.71;94464.19;2062153;28;20211;-68
2024/03/26 08:47:40;;;;;;;5.13;1.85;;;;;;;8.76;59.35;94464.09;2060044;28;20305;-68
2024/03/26 08:48:40;;;;;;;5.53;1.60;;;;;;;8.73;59.56;94466.09;2069479;28;20210;-68
2024/03/26 08:49:41;;;;;;;5.20;1.60;;;;;;;8.96;59.49;94459.22;2071675;28;20814;-68
2024/03/26 08:50:42;;;;;;;5.83;2.03;;;;;;;8.93;58.91;94459.44;2063168;28;20213;-68
2024/03/26 08:51:42;;;;;;;11.97;1.87;;;;;;;9.08;58.38;94463.53;2064726;28;20203;-68
2024/03/26 08:52:43;;;;;;;8.30;3.83;;;;;;;9.20;58.06;94464.38;2061101;28;20270;-67
2024/03/26 08:53:43;;;;;;;31.83;17.50;;;;;;;9.24;58.16;94467.59;2064578;28;20207;-72
2024/03/26 08:54:44;;;;;;;38.50;19.50;;;;;;;9.42;57.66;94460.19;2067397;28;20790;-70
2024/03/26 08:55:45;;;;;;;5.97;2.73;;;;;;;9.45;57.85;94465.19;2074048;28;20198;-71
2024/03/26 08:56:46;;;;;;;7.90;1.88;;;;;;;9.48;57.60;94451.91;2074209;28;20320;-71
2024/03/26 08:57:47;;;;;;;4.17;2.20;;;;;;;9.91;56.78;94455.66;2061924;28;20231;-72
2024/03/26 08:58:52;;;;;;;3.05;1.90;;;;;;;10.21;56.49;94462.88;2060880;28;20214;-70
2024/03/26 08:59:52;;;;;;;5.50;2.17;;;;;;;10.22;55.83;94448.88;2081264;28;20209;-70
2024/03/26 09:00:53;;;;;;;5.77;1.70;;;;;;;10.52;56.45;94450.06;2081042;28;20203;-71
2024/03/26 09:01:53;;;;;;;5.73;1.70;;;;;;;10.73;55.21;94450.13;2080941;28;20201;-70
2024/03/26 09:02:54;;;;;;;7.20;2.60;;;;;;;11.08;54.39;94445.59;2081433;28;20228;-70
2024/03/26 09:03:55;;;;;;;4.97;2.00;;;;;;;11.53;53.94;94441.94;2066374;28;20202;-71
2024/03/26 09:04:55;;;;;;;6.17;2.70;;;;;;;11.30;53.28;94451.69;2062826;28;20513;-70
2024/03/26 09:05:56;;;;;;;4.37;2.20;;;;;;;11.16;53.88;94448.44;2064850;28;20459;-71
2024/03/26 09:06:56;;;;;;;3.87;1.57;;;;;;;11.11;54.10;94448.81;2064071;28;20218;-70
2024/03/26 09:07:57;;;;;;;4.00;1.50;;;;;;;11.02;54.47;94453.94;2064648;28;20233;-70
2024/03/26 09:08:58;;;;;;;9.60;2.30;;;;;;;11.05;54.50;94453.72;2073878;28;20209;-70
2024/03/26 09:09:58;;;;;;;3.87;1.77;;;;;;;10.80;54.04;94452.25;2067725;28;20289;-70
2024/03/26 09:10:59;;;;;;;12.30;2.30;;;;;;;11.03;54.17;94447.78;2065073;28;20744;-71
2024/03/26 09:11:59;;;;;;;5.43;1.93;;;;;;;11.22;53.80;94447.09;2062263;28;20233;-71
2024/03/26 09:13:00;;;;;;;7.83;1.50;;;;;;;11.27;54.11;94452.75;2063613;28;20215;-71
2024/03/26 09:14:00;;;;;;;3.43;1.60;;;;;;;11.38;53.88;94441.44;2065559;28;20233;-71
2024/03/26 09:15:00;;;;;;;3.57;1.80;;;;;;;11.65;53.22;94445.31;2066285;28;20246;-71
2024/03/26 09:16:01;;;;;;;4.10;1.87;;;;;;;11.79;53.04;94441.53;2063861;28;20234;-71
2024/03/26 09:17:03;;;;;;;6.83;1.83;;;;;;;11.82;53.23;94449.13;2063973;28;20218;-70
2024/03/26 09:18:07;;;;;;;2.72;1.30;;;;;;;11.74;53.37;94449.75;2069611;28;20221;-71
2024/03/26 09:19:08;;;;;;;2.60;1.30;;;;;;;11.82;52.90;94454.34;2069197;28;20218;-71
2024/03/26 09:20:09;;;;;;;4.80;1.60;;;;;;;11.54;52.74;94448.81;2065926;28;20793;-70
2024/03/26 09:21:10;;;;;;;4.13;1.50;;;;;;;11.69;52.87;94454.56;2064245;28;20254;-72
2024/03/26 09:22:11;;;;;;;5.00;1.70;;;;;;;11.69;53.05;94451.94;2062742;28;20691;-72
2024/03/26 09:23:14;;;;;;;6.35;1.50;;;;;;;11.67;52.58;94446.84;2057815;28;20211;-72
2024/03/26 09:24:15;;;;;;;3.80;2.00;;;;;;;11.77;52.91;94450.34;2070098;28;20256;-72
2024/03/26 09:25:15;;;;;;;6.43;1.80;;;;;;;12.39;52.49;94447.75;2072553;28;20202;-72
2024/03/26 09:26:16;;;;;;;3.50;1.50;;;;;;;12.70;50.64;94449.47;2066711;28;20205;-72
2024/03/26 09:27:16;;;;;;;9.27;1.83;;;;;;;12.69;50.55;94443.41;2070431;28;20664;-72
2024/03/26 09:28:17;;;;;;;10.37;1.63;;;;;;;13.06;50.17;94445.38;2058430;28;20207;-72
2024/03/26 09:29:17;;;;;;;6.20;1.63;;;;;;;13.21;49.06;94445.78;2055520;28;20234;-73
2024/03/26 09:30:18;;;;;;;2.53;1.20;;;;;;;13.36;49.76;94442.75;2068860;28;20202;-72
2024/03/26 09:31:18;;;;;;;4.33;1.80;;;;;;;13.79;48.85;94443.25;2072218;28;20234;-72
2024/03/26 09:32:20;;;;;;;4.55;1.52;;;;;;;13.62;48.82;94442.19;2068731;28;20612;-72
2024/03/26 09:33:21;;;;;;;5.17;1.30;;;;;;;12.83;47.76;94442.19;2073197;28;20233;-72
2024/03/26 09:34:23;;;;;;;2.95;1.33;;;;;;;12.81;47.89;94444.13;2065327;28;20226;-72
2024/03/26 09:35:23;;;;;;;3.65;1.70;;;;;;;13.41;47.89;94439.72;2065478;28;20206;-72
2024/03/26 09:36:24;;;;;;;5.67;1.57;;;;;;;13.43;46.78;94443.03;2061988;28;20873;-72
2024/03/26 09:37:24;;;;;;;2.70;1.03;;;;;;;14.03;46.80;94440.16;2061208;28;20292;-73
2024/03/26 09:38:25;;;;;;;3.00;1.23;;;;;;;14.39;46.78;94436.84;2068425;28;20222;-73
2024/03/26 09:39:25;;;;;;;3.20;0.90;;;;;;;14.03;45.80;94435.72;2068801;28;20218;-72
2024/03/26 09:40:26;;;;;;;3.30;1.10;;;;;;;14.07;45.51;94431.03;2082220;28;20602;-72
2024/03/26 09:41:28;;;;;;;2.97;1.10;;;;;;;14.41;45.37;94434.88;2080782;28;20224;-72
2024/03/26 09:42:29;;;;;;;4.28;1.25;;;;;;;14.62;44.75;94435.44;2059957;28;20324;-73
2024/03/26 09:43:30;;;;;;;3.63;1.13;;;;;;;14.79;43.40;94430.41;2062630;28;20726;-72
2024/03/26 09:44:30;;;;;;;3.70;1.13;;;;;;;14.97;43.87;94431.25;2062352;28;20277;-72
2024/03/26 09:45:34;;;;;;;2.50;1.20;;;;;;;14.97;43.87;94431.25;2067983;28;20195;-72
2024/03/26 09:46:36;;;;;;;6.35;1.45;;;;;;;14.93;44.41;94429.06;2060232;28;20215;-72
2024/03/26 09:47:38;;;;;;;5.05;1.40;;;;;;;14.89;44.56;94425.09;2064564;28;20219;-72
2024/03/26 09:48:40;;;;;;;5.47;1.38;;;;;;;15.44;45.18;94424.94;2061043;28;20215;-72
2024/03/26 09:49:42;;;;;;;3.58;1.00;;;;;;;15.27;45.36;94423.94;2061408;28;20215;-72
2024/03/26 09:50:45;;;;;;;5.20;2.03;;;;;;;14.59;44.75;94421.78;2060722;28;20370;-72
2024/03/26 09:51:47;;;;;;;6.80;1.00;;;;;;;13.42;46.81;94426.50;2064570;28;20350;-72
2024/03/26 09:52:48;;;;;;;5.15;1.92;;;;;;;14.69;45.42;94414.72;2063430;28;20322;-72
2024/03/26 09:53:49;;;;;;;3.75;1.23;;;;;;;15.23;43.93;94404.22;2061115;28;20206;-71
2024/03/26 09:54:51;;;;;;;5.93;1.60;;;;;;;15.37;43.92;94409.91;2058907;28;20198;-72
2024/03/26 09:55:52;;;;;;;3.65;1.42;;;;;;;15.78;43.58;94402.28;2063697;28;20549;-73
2024/03/26 09:56:54;;;;;;;3.22;1.48;;;;;;;16.22;43.44;94394.34;2071586;28;20210;-71
2024/03/26 09:57:55;;;;;;;3.50;1.10;;;;;;;17.41;41.96;94395.09;2067729;28;20226;-73
2024/03/26 09:58:55;;;;;;;3.00;1.40;;;;;;;-145.49;100.00;55703.94;2060615;28;20257;-72
2024/03/26 09:59:56;;;;;;;2.30;1.13;;;;;;;-145.49;100.00;55703.94;2060940;28;20656;-72
2024/03/26 10:00:58;;;;;;;3.10;1.27;;;;;;;-145.49;100.00;55703.94;2061957;28;20209;-73
2024/03/26 10:02:07;;;;;;;3.58;1.50;;;;;;;-145.49;100.00;55703.94;2066580;28;20806;-69
2024/03/26 10:03:09;;;;;;;4.07;1.52;;;;;;;-145.49;100.00;55703.94;2059662;28;20215;-73
2024/03/26 10:04:09;;;;;;;6.63;1.60;;;;;;;-145.49;100.00;55703.94;2062736;28;20665;-73
2024/03/26 10:05:16;;;;;;;26.37;2.40;;;;;;;-145.49;100.00;55703.94;2074921;28;20637;-73
2024/03/26 10:06:16;;;;;;;38.10;5.70;;;;;;;-145.49;100.00;55703.94;2075055;28;20215;-74
2024/03/26 10:07:17;;;;;;;14.83;2.00;;;;;;;-145.49;100.00;55703.94;2059996;28;20280;-73
2024/03/26 10:08:17;;;;;;;3.73;1.30;;;;;;;-145.49;100.00;55703.94;2054910;28;20296;-74
2024/03/26 10:09:18;;;;;;;4.83;1.27;;;;;;;-145.49;100.00;55703.94;2054752;28;20222;-74
2024/03/26 10:10:21;;;;;;;4.50;1.30;;;;;;;-145.49;100.00;55703.94;2063742;28;20208;-74
2024/03/26 10:11:23;;;;;;;4.50;1.10;;;;;;;-145.49;100.00;55703.94;2064126;28;20632;-74
2024/03/26 10:12:25;;;;;;;6.03;1.40;;;;;;;-145.49;100.00;55703.94;2060074;28;20220;-73
2024/03/26 10:13:25;;;;;;;3.60;1.83;;;;;;;-145.49;100.00;55703.94;2065932;28;20226;-73
2024/03/26 10:14:26;;;;;;;6.20;2.80;;;;;;;-145.49;100.00;55703.94;2070831;28;20216;-73
2024/03/26 10:15:29;;;;;;;13.30;1.87;;;;;;;-145.49;100.00;55703.94;2059770;28;20277;-74
2024/03/26 10:16:29;;;;;;;20.67;5.82;;;;;;;-145.49;100.00;55703.94;2062059;28;20658;-73
2024/03/26 10:17:30;;;;;;;61.93;18.30;;;;;;;-145.49;100.00;55703.94;2059186;28;20810;-73
2024/03/26 10:18:30;;;;;;;33.37;5.50;;;;;;;-145.49;100.00;55703.94;2059727;28;20205;-73
2024/03/26 10:19:31;;;;;;;37.80;4.60;;;;;;;-145.49;100.00;55703.94;2059045;28;20209;-73
2024/03/26 10:20:32;;;;;;;51.53;9.80;;;;;;;-145.49;100.00;55703.94;2065317;28;20263;-73
2024/03/26 10:21:33;;;;;;;15.75;5.93;;;;;;;-145.49;100.00;55703.94;2058397;28;20295;-73
2024/03/26 10:22:33;;;;;;;29.97;5.83;;;;;;;-145.49;100.00;55703.94;2065972;28;20220;-73
2024/03/26 10:23:34;;;;;;;10.70;3.40;;;;;;;-145.49;100.00;55703.94;2057289;28;20755;-73
2024/03/26 10:24:35;;;;;;;4.03;1.40;;;;;;;-145.49;100.00;55703.94;2057251;28;20212;-72
2024/03/26 10:25:35;;;;;;;5.40;1.43;;;;;;;-145.49;100.00;55703.94;2065945;28;20288;-73
2024/03/26 10:26:36;;;;;;;5.80;3.40;;;;;;;-145.49;100.00;55703.94;2058289;28;20208;-72
2024/03/26 10:27:37;;;;;;;15.83;2.97;;;;;;;-145.49;100.00;55703.94;2062716;28;20364;-73
2024/03/26 10:28:37;;;;;;;15.15;3.92;;;;;;;-145.49;100.00;55703.94;2062794;28;20247;-72
2024/03/26 10:29:38;;;;;;;10.33;4.53;;;;;;;-145.49;100.00;55703.94;2059405;28;20205;-73
2024/03/26 10:30:39;;;;;;;6.63;2.03;;;;;;;-145.49;100.00;55703.94;2057902;28;20204;-73
2024/03/26 10:31:43;;;;;;;6.50;2.30;;;;;;;-145.49;100.00;55703.94;2052992;28;20444;-72
2024/03/26 10:32:46;;;;;;;6.85;1.77;;;;;;;-145.49;100.00;55703.94;2058579;28;20459;-73
2024/03/26 10:33:50;;;;;;;5.43;1.60;;;;;;;-145.49;100.00;55703.94;2056911;28;20209;-73
2024/03/26 10:34:56;;;;;;;4.22;1.25;;;;;;;-145.49;100.00;55703.94;2059617;28;20225;-73
2024/03/26 10:35:57;;;;;;;3.90;1.30;;;;;;;-145.49;100.00;55703.94;2068947;28;20216;-73
2024/03/26 10:36:59;;;;;;;3.17;1.17;;;;;;;-145.49;100.00;55703.94;2059388;28;20213;-73
2024/03/26 10:38:03;;;;;;;8.45;1.30;;;;;;;-145.49;100.00;55703.94;2059873;28;20225;-73
2024/03/26 10:39:04;;;;;;;5.32;1.35;;;;;;;-145.49;100.00;55703.94;2063926;28;20207;-73
2024/03/26 10:40:21;;;;;;;2.40;0.80;;;;;;;-145.49;100.00;55703.94;2060890;28;20211;-73
2024/03/26 10:41:29;;;;;;;4.90;1.25;;;;;;;-145.49;100.00;55703.94;2060234;28;20199;-73
2024/03/26 10:42:34;;;;;;;6.60;1.20;;;;;;;-145.49;100.00;55703.94;2059659;28;20215;-73
2024/03/26 10:43:35;;;;;;;4.28;1.00;;;;;;;-145.49;100.00;55703.94;2059909;28;20215;-74
2024/03/26 10:44:36;;;;;;;4.38;1.27;;;;;;;-145.49;100.00;55703.94;2058070;28;20208;-73
2024/03/26 10:45:37;;;;;;;9.60;1.30;;;;;;;-145.49;100.00;55703.94;2059500;28;20220;-73
2024/03/26 10:46:38;;;;;;;2.58;1.00;;;;;;;-145.49;100.00;55703.94;2067257;28;20194;-74
2024/03/26 10:47:39;;;;;;;4.97;1.50;;;;;;;-145.49;100.00;55703.94;2058963;28;20219;-73
2024/03/26 10:48:41;;;;;;;4.78;1.13;;;;;;;-145.49;100.00;55703.94;2058694;28;20207;-73
2024/03/26 10:49:43;;;;;;;9.30;1.58;;;;;;;-145.49;100.00;55703.94;2060948;28;20219;-73
2024/03/26 10:50:45;;;;;;;3.17;1.00;;;;;;;-145.49;100.00;55703.94;2063252;28;20667;-73
2024/03/26 10:51:47;;;;;;;2.80;1.05;;;;;;;-145.49;100.00;55703.94;2063106;28;20218;-73
2024/03/26 10:52:48;;;;;;;4.00;0.90;;;;;;;-145.49;100.00;55703.94;2059606;28;20242;-73
2024/03/26 10:53:49;;;;;;;8.27;1.05;;;;;;;-145.49;100.00;55703.94;2068309;28;20458;-73
2024/03/26 10:54:51;;;;;;;1.75;0.82;;;;;;;-145.49;100.00;55703.94;2062250;28;20642;-73
2024/03/26 10:55:55;;;;;;;2.78;0.90;;;;;;;-145.49;100.00;55703.94;2063351;28;20203;-73
2024/03/26 10:56:57;;;;;;;5.63;1.20;;;;;;;-145.49;100.00;55703.94;2076656;28;20217;-73
2024/03/26 10:57:58;;;;;;;2.95;1.23;;;;;;;-145.49;100.00;55703.94;2074050;28;20229;-73
2024/03/26 10:59:00;;;;;;;5.53;1.10;;;;;;;-145.49;100.00;55703.94;2059884;28;20289;-73
2024/03/26 11:00:04;;;;;;;3.10;1.00;;;;;;;-145.49;100.00;55703.94;2068214;28;20511;-73
2024/03/26 11:01:06;;;;;;;2.20;1.00;;;;;;;-145.49;100.00;55703.94;2064000;28;20240;-73
2024/03/26 11:02:07;;;;;;;3.47;0.98;;;;;;;-145.49;100.00;55703.94;2062879;28;20223;-72
2024/03/26 11:03:08;;;;;;;5.63;1.25;;;;;;;-145.49;100.00;55703.94;2067202;28;20767;-73
2024/03/26 11:04:10;;;;;;;5.25;1.38;;;;;;;-145.49;100.00;55703.94;2074498;28;20220;-74
2024/03/26 11:05:14;;;;;;;2.80;1.02;;;;;;;-145.49;100.00;55703.94;2073574;28;20646;-73
2024/03/26 11:06:18;;;;;;;2.95;1.00;;;;;;;-145.49;100.00;55703.94;2069129;28;20214;-73
2024/03/26 11:07:22;;;;;;;6.70;1.80;;;;;;;-145.49;100.00;55703.94;2066073;28;20204;-73
2024/03/26 11:08:23;;;;;;;8.75;1.13;;;;;;;-145.49;100.00;55703.94;2059021;28;20232;-73
2024/03/26 11:09:26;;;;;;;8.83;1.20;;;;;;;-145.49;100.00;55703.94;2061202;28;20209;-73
2024/03/26 11:10:26;;;;;;;10.40;1.20;;;;;;;-145.49;100.00;55703.94;2058726;28;20209;-73
2024/03/26 11:11:32;;;;;;;5.43;1.50;;;;;;;-145.49;100.00;55703.94;2068803;28;20236;-72
2024/03/26 11:12:34;;;;;;;4.28;1.10;;;;;;;-145.49;100.00;55703.94;2064050;28;20290;-73
2024/03/26 11:13:36;;;;;;;5.47;1.50;;;;;;;-145.49;100.00;55703.94;2058430;28;20210;-73
2024/03/26 11:14:43;;;;;;;4.07;1.42;;;;;;;-145.49;100.00;55703.94;2063779;28;20216;-74
2024/03/26 11:15:43;;;;;;;5.57;1.00;;;;;;;-145.49;100.00;55703.94;2063400;28;20219;-74
2024/03/26 11:16:44;;;;;;;10.83;1.43;;;;;;;-145.49;100.00;55703.94;2058629;28;20212;-73
2024/03/26 11:18:04;;;;;;;5.90;1.13;;;;;;;-145.49;100.00;55703.94;2056796;28;20289;-74
2024/03/26 11:19:21;;;;;;;9.68;1.60;;;;;;;-145.49;100.00;55703.94;2061990;28;20215;-75
2024/03/26 11:20:27;;;;;;;4.43;1.35;;;;;;;-145.49;100.00;55703.94;2062494;28;20210;-72
2024/03/26 11:21:40;;;;;;;5.40;1.85;;;;;;;-145.49;100.00;55703.94;2063584;28;20233;-72
2024/03/26 11:22:41;;;;;;;5.60;2.35;;;;;;;-145.49;100.00;55703.94;2060830;28;20238;-66
2024/03/26 11:23:44;;;;;;;9.00;2.33;;;;;;;-145.49;100.00;55703.94;2067331;28;20250;-64
2024/03/26 11:24:45;;;;;;;4.72;2.25;;;;;;;-145.49;100.00;55703.94;2068571;28;20313;-63
2024/03/26 11:25:53;;;;;;;9.37;2.30;;;;;;;-145.49;100.00;55703.94;2057691;28;20813;-63
2024/03/26 11:26:56;;;;;;;10.25;2.92;;;;;;;-145.49;100.00;55703.94;2059483;28;20702;-64
2024/03/26 11:27:58;;;;;;;6.90;2.72;;;;;;;-145.49;100.00;55703.94;2058303;28;20528;-64
2024/03/26 11:28:59;;;;;;;8.35;2.42;;;;;;;-145.49;100.00;55703.94;2058968;28;20208;-63
2024/03/26 11:30:00;;;;;;;8.90;2.60;;;;;;;-145.49;100.00;55703.94;2066187;28;20230;-64
2024/03/26 11:31:01;;;;;;;9.70;2.90;;;;;;;-145.49;100.00;55703.94;2059767;28;20235;-63
2024/03/26 11:32:02;;;;;;;8.82;2.47;;;;;;;-145.49;100.00;55703.94;2060382;28;20226;-65
2024/03/26 11:33:04;;;;;;;10.70;3.40;;;;;;;-145.49;100.00;55703.94;2060145;28;20246;-64
2024/03/26 11:34:04;;;;;;;8.57;3.35;;;;;;;-145.49;100.00;55703.94;2059411;28;20445;-65
2024/03/26 11:35:22;;;;;;;8.73;3.03;;;;;;;-145.49;100.00;55703.94;2066821;28;20221;-65
2024/03/26 11:36:22;;;;;;;5.78;2.55;;;;;;;-145.49;100.00;55703.94;2063136;28;20241;-66
2024/03/26 11:37:23;;;;;;;6.47;2.60;;;;;;;-145.49;100.00;55703.94;2062863;28;20301;-66
2024/03/26 11:38:24;;;;;;;9.67;2.80;;;;;;;-145.49;100.00;55703.94;2060234;28;21156;-64
2024/03/26 11:39:25;;;;;;;14.57;2.72;;;;;;;-145.49;100.00;55703.94;2060220;28;20619;-64
2024/03/26 11:40:26;;;;;;;10.50;2.30;;;;;;;-145.49;100.00;55703.94;2060853;28;20457;-64
2024/03/26 11:41:29;;;;;;;9.63;2.57;;;;;;;-145.49;100.00;55703.94;2074218;28;20193;-64
2024/03/26 11:42:31;;;;;;;11.02;3.00;;;;;;;-145.49;100.00;55703.94;2073898;28;20651;-65
2024/03/26 11:43:36;;;;;;;9.27;2.50;;;;;;;-145.49;100.00;55703.94;2059642;28;20594;-64
2024/03/26 11:44:37;;;;;;;5.18;2.30;;;;;;;-145.49;100.00;55703.94;2051158;28;20204;-65
2024/03/26 11:45:41;;;;;;;8.57;2.17;;;;;;;-145.49;100.00;55703.94;2053934;28;20219;-65
2024/03/26 11:46:45;;;;;;;4.40;2.00;;;;;;;-145.49;100.00;55703.94;2054044;28;20329;-64
2024/03/26 11:47:46;;;;;;;4.35;1.83;;;;;;;-145.49;100.00;55703.94;2052067;28;20322;-64
2024/03/26 11:49:00;;;;;;;4.47;1.70;;;;;;;-145.49;100.00;55703.94;2058481;28;20297;-65
2024/03/26 11:50:00;;;;;;;10.85;2.45;;;;;;;-145.49;100.00;55703.94;2059963;28;20203;-65
2024/03/26 11:51:03;;;;;;;6.67;2.20;;;;;;;-145.49;100.00;55703.94;2059980;28;20215;-65
2024/03/26 11:52:05;;;;;;;6.22;2.00;;;;;;;-145.49;100.00;55703.94;2058698;28;20211;-64
2024/03/26 11:53:05;;;;;;;5.43;1.88;;;;;;;-145.49;100.00;55703.94;2058701;28;20563;-64
2024/03/26 11:54:08;;;;;;;2.63;1.50;;;;;;;-145.49;100.00;55703.94;2059038;28;20277;-64
2024/03/26 11:55:09;;;;;;;7.22;2.20;;;;;;;-145.49;100.00;55703.94;2059770;28;20200;-64
2024/03/26 11:56:09;;;;;;;9.03;2.07;;;;;;;-145.49;100.00;55703.94;2058592;28;20674;-64
2024/03/26 11:57:10;;;;;;;8.40;2.13;;;;;;;-145.49;100.00;55703.94;2065722;28;20213;-64
2024/03/26 11:58:11;;;;;;;9.77;1.93;;;;;;;-145.49;100.00;55703.94;2060704;28;20655;-65
2024/03/26 11:59:11;;;;;;;6.60;2.20;;;;;;;-145.49;100.00;55703.94;2060217;28;20961;-64
2024/03/26 12:00:12;;;;;;;6.50;1.70;;;;;;;-145.49;100.00;55703.94;2058020;28;20209;-65
2024/03/26 12:01:15;;;;;;;7.95;2.00;;;;;;;-145.49;100.00;55703.94;2057896;28;20851;-64
2024/03/26 12:02:16;;;;;;;8.85;1.85;;;;;;;-145.49;100.00;55703.94;2059461;28;20251;-64
2024/03/26 12:03:16;;;;;;;3.38;1.80;;;;;;;-145.49;100.00;55703.94;2059234;28;20210;-65
2024/03/26 12:04:17;;;;;;;8.60;2.17;;;;;;;-145.49;100.00;55703.94;2059292;28;20219;-65
2024/03/26 12:05:17;;;;;;;3.60;2.30;;;;;;;-145.49;100.00;55703.94;2059530;28;20206;-65
2024/03/26 12:06:21;;;;;;;8.60;2.20;;;;;;;-145.49;100.00;55703.94;2060179;28;20210;-64
2024/03/26 12:07:26;;;;;;;6.50;1.90;;;;;;;-145.49;100.00;55703.94;2062114;28;20742;-65
2024/03/26 12:08:27;;;;;;;5.47;2.25;;;;;;;-145.49;100.00;55703.94;2059298;28;20574;-64
2024/03/26 12:09:28;;;;;;;4.30;2.10;;;;;;;-145.49;100.00;55703.94;2067244;28;20205;-64
2024/03/26 12:10:28;;;;;;;5.33;2.07;;;;;;;-145.49;100.00;55703.94;2059121;28;20538;-64
2024/03/26 12:11:29;;;;;;;4.57;2.00;;;;;;;-145.49;100.00;55703.94;2057284;28;20354;-64
2024/03/26 12:12:31;;;;;;;6.70;2.40;;;;;;;-145.49;100.00;55703.94;2057482;28;20788;-64
2024/03/26 12:13:32;;;;;;;10.63;3.15;;;;;;;-145.49;100.00;55703.94;2059850;28;20711;-64
2024/03/26 12:14:33;;;;;;;4.03;1.73;;;;;;;-145.49;100.00;55703.94;2057498;28;20581;-64
2024/03/26 12:15:33;;;;;;;11.83;3.03;;;;;;;-145.49;100.00;55703.94;2059996;28;20574;-64
2024/03/26 12:16:34;;;;;;;6.60;2.03;;;;;;;-145.49;100.00;55703.94;2059662;28;20441;-63
2024/03/26 12:17:34;;;;;;;7.80;2.40;;;;;;;-145.49;100.00;55703.94;2060095;28;20264;-64
2024/03/26 12:18:35;;;;;;;8.50;2.50;;;;;;;-145.49;100.00;55703.94;2065598;28;20567;-64
2024/03/26 12:19:35;;;;;;;13.00;2.77;;;;;;;-145.49;100.00;55703.94;2056236;28;20223;-64
2024/03/26 12:20:36;;;;;;;5.57;2.27;;;;;;;-145.49;100.00;55703.94;2058372;28;20214;-64
2024/03/26 12:21:37;;;;;;;5.97;2.47;;;;;;;-145.49;100.00;55703.94;2062504;28;20245;-65
2024/03/26 12:22:40;;;;;;;4.53;2.30;;;;;;;-145.49;100.00;55703.94;2055221;28;20266;-64
2024/03/26 12:23:40;;;;;;;11.50;2.75;;;;;;;-145.49;100.00;55703.94;2055391;28;20215;-64
2024/03/26 12:24:41;;;;;;;11.43;3.20;;;;;;;-145.49;100.00;55703.94;2057119;28;20200;-65
2024/03/26 12:25:43;;;;;;;5.37;3.00;;;;;;;-145.49;100.00;55703.94;2060883;28;20211;-65
2024/03/26 12:26:44;;;;;;;6.25;2.72;;;;;;;-145.49;100.00;55703.94;2062138;28;20261;-64
2024/03/26 12:27:45;;;;;;;10.27;3.30;;;;;;;-145.49;100.00;55703.94;2062695;28;20227;-65
2024/03/26 12:28:46;;;;;;;5.97;2.73;;;;;;;-145.49;100.00;55703.94;2059547;28;20213;-65
2024/03/26 12:29:47;;;;;;;4.45;2.30;;;;;;;-145.49;100.00;55703.94;2063225;28;20207;-64
2024/03/26 12:30:49;;;;;;;8.73;2.80;;;;;;;-145.49;100.00;55703.94;2059954;28;20231;-64
2024/03/26 12:31:50;;;;;;;7.43;2.85;;;;;;;-145.49;100.00;55703.94;2060567;28;20299;-65
2024/03/26 12:33:00;;;;;;;5.17;2.50;;;;;;;-145.49;100.00;55703.94;2057648;28;20314;-64
2024/03/26 12:34:11;;;;;;;5.35;3.08;;;;;;;-145.49;100.00;55703.94;2061305;28;20448;-65
2024/03/26 12:35:11;;;;;;;6.78;2.40;;;;;;;-145.49;100.00;55703.94;2068934;28;20209;-64
2024/03/26 12:36:13;;;;;;;6.03;3.13;;;;;;;-145.49;100.00;55703.94;2059824;28;20223;-64
2024/03/26 12:37:13;;;;;;;4.25;2.50;;;;;;;-145.49;100.00;55703.94;2054531;28;20277;-65
2024/03/26 12:38:14;;;;;;;6.03;2.70;;;;;;;-145.49;100.00;55703.94;2060510;28;20207;-65
2024/03/26 12:39:14;;;;;;;4.37;2.87;;;;;;;-145.49;100.00;55703.94;2066535;28;20207;-64
2024/03/26 12:40:15;;;;;;;9.20;2.90;;;;;;;-145.49;100.00;55703.94;2059622;28;20554;-65
2024/03/26 12:41:16;;;;;;;7.90;3.00;;;;;;;-145.49;100.00;55703.94;2059156;28;20550;-65
2024/03/26 12:42:16;;;;;;;5.13;2.60;;;;;;;-145.49;100.00;55703.94;2059472;28;20562;-65
2024/03/26 12:43:17;;;;;;;5.73;2.40;;;;;;;-145.49;100.00;55703.94;2051783;28;20220;-65
2024/03/26 12:44:19;;;;;;;4.67;2.50;;;;;;;-145.49;100.00;55703.94;2053700;28;20241;-65
2024/03/26 12:45:20;;;;;;;5.00;2.55;;;;;;;-145.49;100.00;55703.94;2059736;28;20676;-65
2024/03/26 12:46:20;;;;;;;5.00;2.70;;;;;;;-145.49;100.00;55703.94;2060927;28;20644;-65
2024/03/26 12:47:21;;;;;;;7.50;2.57;;;;;;;-145.49;100.00;55703.94;2066320;28;20249;-65
2024/03/26 12:48:22;;;;;;;5.23;2.53;;;;;;;-145.49;100.00;55703.94;2059120;28;20475;-65
2024/03/26 12:49:23;;;;;;;8.43;2.55;;;;;;;-145.49;100.00;55703.94;2067488;28;20608;-65
2024/03/26 12:50:24;;;;;;;4.77;2.20;;;;;;;-145.49;100.00;55703.94;2058388;28;20214;-64
2024/03/26 12:51:24;;;;;;;6.70;2.80;;;;;;;-145.49;100.00;55703.94;2067101;28;20244;-66